Time;durP1;ratioP1;P1;durP2;ratioP2;P2;SDS_P1;SDS_P2;PMS_P1;PMS_P2;Temp;Humidity;BMP_temperature;BMP_pressure;BME280_temperature;BME280_humidity;BME280_pressure;Samples;Min_cycle;Max_cycle;Signal;HPM_P1;HPM_P2
2021/05/10 00:01:12;;;;;;;1.10;0.90;;;22.30;46.80;;;;;;5031908;28;20025;-36
2021/05/10 00:03:38;;;;;;;2.00;1.02;;;22.30;46.90;;;;;;5030712;28;20029;-36
2021/05/10 00:06:04;;;;;;;1.48;1.00;;;22.30;46.80;;;;;;5030997;28;20030;-37
2021/05/10 00:08:29;;;;;;;2.05;0.95;;;22.30;46.90;;;;;;5031952;28;20049;-37
2021/05/10 00:10:55;;;;;;;1.23;0.90;;;22.30;46.90;;;;;;5031325;28;20057;-51
2021/05/10 00:13:26;;;;;;;2.00;1.00;;;22.20;46.80;;;;;;5031660;28;20025;-36
2021/05/10 00:15:52;;;;;;;1.90;1.00;;;22.20;47.00;;;;;;5030565;28;20537;-37
2021/05/10 00:18:18;;;;;;;1.50;0.98;;;22.20;46.90;;;;;;5029734;28;20125;-37
2021/05/10 00:20:46;;;;;;;1.50;1.00;;;22.30;47.00;;;;;;5031668;28;20033;-36
2021/05/10 00:23:13;;;;;;;1.13;0.90;;;22.20;46.90;;;;;;5030685;28;20034;-36
2021/05/10 00:25:39;;;;;;;1.17;0.80;;;22.20;46.90;;;;;;5031807;28;20026;-36
2021/05/10 00:28:06;;;;;;;2.08;1.10;;;22.20;47.00;;;;;;5022750;28;20505;-36
2021/05/10 00:30:32;;;;;;;1.95;1.00;;;22.20;47.10;;;;;;5063676;28;20034;-36
2021/05/10 00:32:59;;;;;;;1.50;1.23;;;22.20;47.10;;;;;;5062923;28;20033;-46
2021/05/10 00:35:25;;;;;;;1.38;0.88;;;22.20;47.00;;;;;;5031702;28;20032;-36
2021/05/10 00:37:52;;;;;;;1.38;0.90;;;22.20;47.00;;;;;;5063543;28;20036;-45
2021/05/10 00:40:21;;;;;;;1.52;1.02;;;22.20;47.00;;;;;;5030620;28;20907;-37
2021/05/10 00:42:47;;;;;;;1.48;0.80;;;22.20;47.00;;;;;;5031811;28;20029;-36
2021/05/10 00:45:13;;;;;;;1.20;0.90;;;22.20;47.00;;;;;;5029628;28;20428;-36
2021/05/10 00:47:40;;;;;;;1.52;1.00;;;22.20;47.00;;;;;;5031562;28;20033;-36
2021/05/10 00:50:08;;;;;;;1.60;1.02;;;22.20;47.00;;;;;;5030668;28;20040;-36
2021/05/10 00:52:35;;;;;;;2.00;1.15;;;22.20;47.10;;;;;;5031751;28;20056;-36
2021/05/10 00:55:01;;;;;;;2.38;1.17;;;22.10;47.00;;;;;;5034615;28;20033;-37
2021/05/10 00:57:32;;;;;;;1.88;1.30;;;22.20;47.10;;;;;;5067081;28;20060;-36
2021/05/10 00:59:58;;;;;;;1.65;0.90;;;22.20;47.00;;;;;;5033483;28;20084;-51
2021/05/10 01:02:24;;;;;;;1.65;0.85;;;22.20;47.10;;;;;;5067110;28;20040;-37
2021/05/10 01:04:50;;;;;;;1.35;0.98;;;22.10;47.00;;;;;;5033711;28;20030;-36
2021/05/10 01:07:16;;;;;;;1.08;0.75;;;22.10;47.00;;;;;;5034299;28;20033;-37
2021/05/10 01:09:41;;;;;;;1.75;0.80;;;22.10;46.90;;;;;;5033784;28;20033;-36
2021/05/10 01:12:07;;;;;;;1.75;0.95;;;22.10;46.90;;;;;;5032995;28;20037;-36
2021/05/10 01:14:36;;;;;;;3.17;0.82;;;22.10;46.90;;;;;;5033321;28;20536;-36
2021/05/10 01:17:02;;;;;;;1.77;0.90;;;22.10;47.00;;;;;;5032967;28;20033;-37
2021/05/10 01:19:28;;;;;;;1.50;0.95;;;22.10;46.70;;;;;;5033666;28;20386;-36
2021/05/10 01:21:58;;;;;;;1.10;0.80;;;22.10;46.70;;;;;;5032550;28;20025;-37
2021/05/10 01:24:25;;;;;;;1.42;0.93;;;22.10;46.90;;;;;;5034355;28;20041;-36
2021/05/10 01:26:50;;;;;;;1.58;0.90;;;22.10;46.70;;;;;;5033306;28;20036;-36
2021/05/10 01:29:19;;;;;;;1.63;1.25;;;22.10;46.70;;;;;;5032320;28;20033;-36
2021/05/10 01:31:45;;;;;;;0.98;0.57;;;22.10;46.70;;;;;;5034435;28;20026;-36
2021/05/10 01:34:11;;;;;;;1.88;1.05;;;22.10;46.70;;;;;;5032506;28;20087;-37
2021/05/10 01:36:37;;;;;;;1.45;0.82;;;22.10;46.70;;;;;;5034443;28;20501;-36
2021/05/10 01:39:04;;;;;;;1.00;0.90;;;22.10;46.70;;;;;;5065718;28;20095;-37
2021/05/10 01:41:29;;;;;;;1.20;0.80;;;22.10;46.70;;;;;;5066533;28;20025;-36
2021/05/10 01:43:55;;;;;;;1.85;1.25;;;22.10;46.80;;;;;;5033980;28;20079;-40
2021/05/10 01:46:20;;;;;;;1.20;0.90;;;22.10;46.80;;;;;;5033986;28;20068;-36
2021/05/10 01:48:46;;;;;;;1.30;0.95;;;22.10;47.10;;;;;;5034006;28;20033;-36
2021/05/10 01:51:12;;;;;;;1.00;0.88;;;22.10;47.10;;;;;;5033335;28;20022;-36
2021/05/10 01:53:37;;;;;;;1.23;1.08;;;22.00;47.10;;;;;;5066156;28;20493;-36
2021/05/10 01:56:03;;;;;;;2.47;1.33;;;22.00;47.00;;;;;;5033376;28;20045;-37
2021/05/10 01:58:29;;;;;;;1.30;1.00;;;22.00;47.00;;;;;;5033963;28;20478;-36
2021/05/10 02:00:55;;;;;;;3.92;0.95;;;22.00;46.90;;;;;;5033969;28;20522;-36
2021/05/10 02:03:22;;;;;;;1.23;0.90;;;22.00;46.80;;;;;;5032894;28;20029;-36
2021/05/10 02:05:50;;;;;;;2.17;1.10;;;22.00;46.80;;;;;;5033605;28;20029;-36
2021/05/10 02:08:16;;;;;;;1.45;0.82;;;22.00;46.80;;;;;;5032865;28;20486;-37
2021/05/10 02:10:45;;;;;;;1.77;0.82;;;22.00;46.70;;;;;;5033945;28;20072;-36
2021/05/10 02:13:21;;;;;;;2.70;1.30;;;22.00;46.70;;;;;;5065069;28;20116;-36
2021/05/10 02:15:55;;;;;;;1.52;1.08;;;22.00;46.70;;;;;;5032117;28;20052;-37
2021/05/10 02:18:24;;;;;;;1.67;1.00;;;22.00;46.70;;;;;;5013109;28;20022;-37
2021/05/10 02:20:51;;;;;;;1.73;0.90;;;22.00;46.70;;;;;;5013759;28;20029;-36
2021/05/10 02:23:20;;;;;;;1.35;0.90;;;22.00;46.60;;;;;;5011633;28;20616;-36
2021/05/10 02:25:55;;;;;;;2.72;1.23;;;22.00;46.60;;;;;;5013718;28;20037;-37
2021/05/10 02:28:23;;;;;;;1.13;1.00;;;22.00;46.60;;;;;;5012797;28;20178;-36
2021/05/10 02:30:50;;;;;;;1.15;0.85;;;22.00;46.60;;;;;;5012399;28;20038;-36
2021/05/10 02:33:19;;;;;;;1.95;0.90;;;22.00;46.60;;;;;;5011620;28;20033;-36
2021/05/10 02:35:46;;;;;;;2.22;1.42;;;22.00;46.60;;;;;;5013530;28;20030;-37
2021/05/10 02:38:13;;;;;;;1.30;0.93;;;22.00;46.60;;;;;;5012536;28;20487;-36
2021/05/10 02:40:39;;;;;;;0.80;0.80;;;22.00;46.60;;;;;;5013200;28;20057;-36
2021/05/10 02:43:05;;;;;;;1.30;0.80;;;22.00;46.60;;;;;;5013039;28;20026;-37
2021/05/10 02:45:31;;;;;;;0.95;0.85;;;22.00;46.50;;;;;;5013409;28;20057;-36
2021/05/10 02:47:57;;;;;;;2.67;1.15;;;22.00;46.60;;;;;;5013396;28;20030;-36
2021/05/10 02:50:24;;;;;;;1.42;0.70;;;22.00;46.50;;;;;;5012806;28;20498;-37
2021/05/10 02:52:51;;;;;;;1.25;0.80;;;22.00;46.60;;;;;;5012054;28;20026;-36
2021/05/10 02:55:18;;;;;;;1.35;0.85;;;22.00;46.60;;;;;;5012210;28;20467;-36
2021/05/10 02:57:45;;;;;;;1.52;1.10;;;21.90;46.60;;;;;;5012971;28;20029;-37
2021/05/10 03:00:16;;;;;;;1.40;1.00;;;22.00;46.60;;;;;;5012513;28;20030;-36
2021/05/10 03:02:42;;;;;;;2.97;1.10;;;22.00;46.30;;;;;;5013816;28;20022;-36
2021/05/10 03:05:10;;;;;;;1.08;0.82;;;21.90;46.40;;;;;;5010829;28;20125;-37
2021/05/10 03:07:36;;;;;;;3.30;1.00;;;22.00;46.60;;;;;;5029419;28;20029;-39
2021/05/10 03:10:05;;;;;;;1.90;1.30;;;22.00;46.30;;;;;;5029270;28;20037;-52
2021/05/10 03:12:31;;;;;;;2.15;0.90;;;22.00;46.50;;;;;;5011066;28;20112;-37
2021/05/10 03:14:57;;;;;;;1.13;0.90;;;22.00;46.50;;;;;;5010999;28;20121;-36
2021/05/10 03:17:22;;;;;;;0.95;0.73;;;21.90;46.50;;;;;;5012114;28;20052;-36
2021/05/10 03:19:49;;;;;;;3.08;1.00;;;22.00;46.60;;;;;;5012494;28;20080;-36
2021/05/10 03:22:14;;;;;;;2.20;1.30;;;22.00;46.50;;;;;;5010762;28;20033;-36
2021/05/10 03:24:40;;;;;;;1.27;1.15;;;21.90;46.40;;;;;;5011187;28;20467;-37
2021/05/10 03:27:07;;;;;;;2.45;0.82;;;22.00;46.60;;;;;;5012011;28;20034;-37
2021/05/10 03:29:33;;;;;;;1.35;1.10;;;22.00;46.60;;;;;;5012632;28;20061;-37
2021/05/10 03:31:59;;;;;;;1.63;1.05;;;22.00;46.60;;;;;;5012443;28;20430;-36
2021/05/10 03:34:25;;;;;;;2.75;1.05;;;21.90;46.50;;;;;;5011830;28;20034;-41
2021/05/10 03:36:50;;;;;;;2.88;1.00;;;22.00;46.50;;;;;;5012344;28;20052;-36
2021/05/10 03:39:16;;;;;;;1.80;0.90;;;21.90;46.20;;;;;;5011414;28;20471;-36
2021/05/10 03:41:42;;;;;;;1.90;0.93;;;21.90;46.30;;;;;;5011255;28;20026;-36
2021/05/10 03:44:08;;;;;;;2.28;1.00;;;21.90;46.30;;;;;;5011602;28;20029;-37
2021/05/10 03:46:33;;;;;;;1.33;0.93;;;22.00;46.30;;;;;;5012470;28;20030;-36
2021/05/10 03:48:59;;;;;;;1.27;1.00;;;22.00;46.20;;;;;;5011282;28;20117;-36
2021/05/10 03:51:25;;;;;;;2.92;1.05;;;21.90;46.00;;;;;;5011644;28;20050;-37
2021/05/10 03:53:52;;;;;;;1.63;0.90;;;22.00;46.20;;;;;;5012239;28;20108;-37
2021/05/10 03:56:18;;;;;;;1.17;1.00;;;21.90;46.30;;;;;;5011336;28;20064;-36
2021/05/10 03:58:43;;;;;;;1.73;0.80;;;21.90;46.20;;;;;;5010451;28;20475;-36
2021/05/10 04:01:10;;;;;;;1.55;0.90;;;21.90;46.20;;;;;;5011282;28;20033;-40
2021/05/10 04:04:06;;;;;;;1.48;1.15;;;21.90;46.00;;;;;;5011879;28;20026;-37
2021/05/10 04:06:36;;;;;;;0.88;0.75;;;21.90;46.00;;;;;;5029662;28;20048;-36
2021/05/10 04:09:23;;;;;;;1.27;0.82;;;21.90;46.00;;;;;;5063753;28;20030;-51
2021/05/10 04:14:33;;;;;;;1.63;1.10;;;21.90;46.00;;;;;;5032096;28;20386;-36
2021/05/10 04:16:59;;;;;;;1.10;0.90;;;21.90;45.60;;;;;;5031633;28;20029;-37
2021/05/10 04:19:25;;;;;;;3.35;0.90;;;21.90;45.80;;;;;;5031078;28;20033;-36
2021/05/10 04:21:51;;;;;;;1.33;0.80;;;21.90;45.90;;;;;;5063814;28;20053;-36
2021/05/10 04:24:16;;;;;;;2.60;1.20;;;21.90;46.40;;;;;;5030873;28;20029;-36
2021/05/10 04:26:42;;;;;;;1.98;1.25;;;21.90;46.30;;;;;;5033304;28;20394;-36
2021/05/10 04:29:08;;;;;;;2.08;1.05;;;21.90;46.00;;;;;;5067074;28;20036;-37
2021/05/10 04:31:33;;;;;;;1.52;1.13;;;21.90;46.00;;;;;;5035746;28;20107;-36
2021/05/10 04:33:59;;;;;;;1.65;1.00;;;21.90;46.00;;;;;;5035562;28;20104;-36
2021/05/10 04:36:25;;;;;;;2.63;0.98;;;21.80;45.90;;;;;;5033574;28;20029;-36
2021/05/10 04:38:50;;;;;;;1.27;1.05;;;21.90;45.80;;;;;;5035674;28;20075;-36
2021/05/10 04:41:16;;;;;;;3.00;1.33;;;21.90;45.50;;;;;;5033044;28;20029;-37
2021/05/10 04:43:41;;;;;;;1.02;0.80;;;21.90;45.40;;;;;;5034250;28;20033;-36
2021/05/10 04:46:07;;;;;;;1.65;0.98;;;21.90;45.60;;;;;;5033296;28;20040;-37
2021/05/10 04:48:33;;;;;;;1.48;0.90;;;21.90;45.70;;;;;;5067677;28;20074;-36
2021/05/10 04:50:59;;;;;;;1.48;0.90;;;21.90;45.30;;;;;;5035696;28;20374;-36
2021/05/10 04:53:24;;;;;;;2.67;1.08;;;21.90;45.40;;;;;;5034476;28;20021;-36
2021/05/10 04:55:50;;;;;;;1.30;0.93;;;21.90;45.30;;;;;;5035144;28;20037;-36
2021/05/10 04:58:16;;;;;;;2.78;0.98;;;21.90;45.50;;;;;;5064164;28;20516;-40
2021/05/10 05:00:42;;;;;;;3.15;1.13;;;21.90;45.20;;;;;;5035321;28;20033;-37
2021/05/10 05:03:07;;;;;;;1.40;0.90;;;21.90;44.90;;;;;;5034564;28;20061;-37
2021/05/10 05:05:33;;;;;;;1.52;0.90;;;21.90;45.10;;;;;;5033739;28;20115;-37
2021/05/10 05:07:59;;;;;;;1.70;1.27;;;21.90;45.20;;;;;;5035044;28;20025;-36
2021/05/10 05:10:25;;;;;;;2.13;1.02;;;21.90;45.90;;;;;;5034167;28;20648;-36
2021/05/10 05:12:50;;;;;;;2.75;1.00;;;21.90;45.40;;;;;;5035068;28;20025;-36
2021/05/10 05:15:17;;;;;;;2.35;0.90;;;21.90;45.20;;;;;;5034043;28;20041;-36
2021/05/10 05:17:43;;;;;;;1.88;1.15;;;21.90;45.30;;;;;;5017223;28;20029;-36
2021/05/10 05:20:10;;;;;;;2.15;1.10;;;21.90;45.30;;;;;;5032651;28;20028;-37
2021/05/10 05:22:36;;;;;;;1.23;0.85;;;21.90;45.50;;;;;;5034539;28;20025;-36
2021/05/10 05:25:04;;;;;;;2.50;1.05;;;21.90;45.60;;;;;;5033368;28;20485;-37
2021/05/10 05:27:29;;;;;;;1.30;0.90;;;21.90;45.70;;;;;;5032882;28;20041;-37
2021/05/10 05:29:56;;;;;;;3.20;1.10;;;21.90;45.90;;;;;;5034959;28;20413;-36
2021/05/10 05:32:23;;;;;;;2.70;0.90;;;21.90;46.00;;;;;;5032523;28;20052;-37
2021/05/10 05:34:49;;;;;;;1.30;1.02;;;21.80;46.00;;;;;;5052006;28;20037;-36
2021/05/10 05:37:15;;;;;;;5.93;1.48;;;21.80;46.70;;;;;;5050952;28;20048;-37
2021/05/10 05:39:41;;;;;;;2.65;1.13;;;21.90;46.50;;;;;;5051489;28;20048;-37
2021/05/10 05:42:07;;;;;;;6.22;1.38;;;21.90;46.70;;;;;;5051082;28;20422;-51
2021/05/10 05:44:36;;;;;;;9.73;1.25;;;22.00;47.00;;;;;;5051772;28;20486;-36
2021/05/10 05:47:04;;;;;;;7.90;1.45;;;21.90;46.80;;;;;;5051724;28;20116;-36
2021/05/10 05:49:34;;;;;;;6.95;1.92;;;21.90;47.10;;;;;;5051186;28;20042;-36
2021/05/10 05:52:04;;;;;;;2.90;1.40;;;22.00;47.30;;;;;;5048323;28;20068;-37
2021/05/10 05:54:31;;;;;;;5.32;1.10;;;21.90;47.10;;;;;;5036297;28;20111;-36
2021/05/10 05:56:57;;;;;;;4.38;1.40;;;21.90;47.30;;;;;;5051382;28;20163;-36
2021/05/10 05:59:23;;;;;;;3.67;2.03;;;22.00;47.30;;;;;;5050505;28;20139;-37
2021/05/10 06:01:48;;;;;;;8.73;2.00;;;22.00;47.20;;;;;;5041103;28;20068;-36
2021/05/10 06:04:14;;;;;;;3.80;1.80;;;22.00;46.80;;;;;;5045860;28;20174;-37
2021/05/10 06:06:40;;;;;;;7.22;2.20;;;22.00;46.80;;;;;;5036055;28;20558;-36
2021/05/10 06:09:08;;;;;;;8.55;2.20;;;21.90;47.10;;;;;;5033509;28;20112;-50
2021/05/10 06:11:36;;;;;;;8.00;2.50;;;21.90;47.30;;;;;;5033272;28;20494;-36
2021/05/10 06:14:02;;;;;;;7.07;2.22;;;21.90;47.70;;;;;;5032402;28;20099;-36
2021/05/10 06:16:31;;;;;;;5.93;2.47;;;21.90;47.40;;;;;;5029695;28;20023;-36
2021/05/10 06:18:57;;;;;;;8.23;2.25;;;21.80;48.00;;;;;;5029185;28;20029;-39
2021/05/10 06:21:23;;;;;;;7.82;2.65;;;21.80;47.80;;;;;;5024371;28;20044;-38
2021/05/10 06:23:49;;;;;;;7.45;2.72;;;21.70;48.10;;;;;;5033271;28;20474;-36
2021/05/10 06:26:16;;;;;;;5.70;2.85;;;21.70;48.30;;;;;;5032588;28;20658;-36
2021/05/10 06:28:42;;;;;;;10.32;3.05;;;21.60;48.00;;;;;;5032947;28;20041;-36
2021/05/10 06:31:10;;;;;;;9.98;3.63;;;21.50;48.10;;;;;;5032789;28;20360;-50
2021/05/10 06:33:35;;;;;;;10.88;2.70;;;21.50;47.80;;;;;;5033004;28;20030;-39
2021/05/10 06:36:01;;;;;;;9.85;2.92;;;21.50;47.60;;;;;;5031899;28;20062;-36
2021/05/10 06:38:27;;;;;;;6.63;2.40;;;21.50;47.20;;;;;;5028594;28;20021;-36
2021/05/10 06:40:52;;;;;;;8.95;2.95;;;21.50;47.00;;;;;;5033537;28;20120;-36
2021/05/10 06:43:18;;;;;;;10.45;2.50;;;21.50;47.30;;;;;;5032704;28;20116;-36
2021/05/10 06:45:44;;;;;;;8.05;2.83;;;21.50;47.30;;;;;;5032708;28;20029;-36
2021/05/10 06:48:09;;;;;;;8.57;2.58;;;21.60;47.70;;;;;;5030270;28;20072;-51
2021/05/10 06:50:35;;;;;;;4.78;2.00;;;21.60;48.00;;;;;;5031664;28;20025;-37
2021/05/10 06:53:01;;;;;;;8.23;2.55;;;21.70;48.40;;;;;;5032608;28;20471;-36
2021/05/10 06:55:26;;;;;;;6.63;2.20;;;21.80;48.20;;;;;;5031951;28;20658;-36
2021/05/10 06:57:52;;;;;;;7.78;2.40;;;21.70;48.10;;;;;;5032507;28;20052;-36
2021/05/10 07:00:18;;;;;;;10.13;3.15;;;21.80;48.30;;;;;;5031049;28;20037;-36
2021/05/10 07:02:44;;;;;;;6.30;2.10;;;21.80;48.40;;;;;;5031578;28;20030;-38
2021/05/10 07:05:10;;;;;;;6.57;2.17;;;21.80;48.40;;;;;;5031972;28;20364;-50
2021/05/10 07:07:36;;;;;;;13.82;2.85;;;21.80;48.50;;;;;;5031390;28;20025;-36
2021/05/10 07:10:02;;;;;;;6.57;2.13;;;21.80;48.40;;;;;;5032572;28;20036;-36
2021/05/10 07:12:28;;;;;;;5.10;2.50;;;21.80;48.50;;;;;;5030381;28;20028;-36
2021/05/10 07:14:54;;;;;;;5.78;2.42;;;21.80;48.50;;;;;;5032174;28;20037;-36
2021/05/10 07:17:19;;;;;;;6.75;2.50;;;21.80;48.50;;;;;;5028892;28;20044;-36
2021/05/10 07:19:45;;;;;;;5.63;1.90;;;21.80;48.60;;;;;;5051551;28;20116;-37
2021/05/10 07:22:11;;;;;;;4.75;1.80;;;21.80;48.50;;;;;;5051856;28;20406;-51
2021/05/10 07:24:36;;;;;;;4.47;2.20;;;21.80;48.50;;;;;;5052120;28;20036;-36
2021/05/10 07:27:02;;;;;;;4.82;2.35;;;21.80;48.50;;;;;;5052676;28;20083;-36
2021/05/10 07:29:28;;;;;;;4.45;2.20;;;21.90;48.50;;;;;;5051346;28;20032;-36
2021/05/10 07:31:54;;;;;;;4.18;2.47;;;21.80;48.50;;;;;;5050895;28;20104;-37
2021/05/10 07:34:21;;;;;;;5.78;1.80;;;21.80;48.40;;;;;;5023506;28;20375;-36
2021/05/10 07:36:47;;;;;;;3.28;2.00;;;21.80;48.40;;;;;;5032499;28;20039;-36
2021/05/10 07:39:12;;;;;;;4.43;1.90;;;21.90;48.50;;;;;;5032158;28;20108;-39
2021/05/10 07:41:38;;;;;;;3.75;1.85;;;21.80;48.40;;;;;;5030013;28;20029;-36
2021/05/10 07:44:04;;;;;;;3.75;2.40;;;21.90;48.50;;;;;;5030508;28;20064;-36
2021/05/10 07:46:30;;;;;;;6.20;1.88;;;21.80;49.00;;;;;;5031335;28;20033;-39
2021/05/10 07:48:56;;;;;;;4.10;2.13;;;21.90;48.50;;;;;;5043777;28;20091;-36
2021/05/10 07:51:22;;;;;;;3.72;2.20;;;21.90;48.40;;;;;;5049854;28;20458;-36
2021/05/10 07:53:48;;;;;;;4.97;2.20;;;21.90;48.40;;;;;;5050604;28;20029;-36
2021/05/10 07:56:14;;;;;;;4.28;2.33;;;21.90;48.30;;;;;;5050719;28;20100;-37
2021/05/10 07:58:45;;;;;;;3.47;1.88;;;21.90;48.50;;;;;;5051359;28;20124;-36
2021/05/10 08:01:10;;;;;;;3.60;1.85;;;21.90;48.30;;;;;;5051245;28;20040;-51
2021/05/10 08:03:36;;;;;;;5.07;1.80;;;21.90;48.30;;;;;;5049995;28;20037;-36
2021/05/10 08:06:02;;;;;;;7.30;1.95;;;21.90;48.20;;;;;;5046129;28;20086;-36
2021/05/10 08:08:28;;;;;;;7.82;2.30;;;21.90;48.30;;;;;;5029683;28;20521;-36
2021/05/10 08:10:54;;;;;;;4.25;1.40;;;21.90;48.30;;;;;;5031555;28;20079;-36
2021/05/10 08:13:20;;;;;;;4.05;1.92;;;21.90;48.40;;;;;;5031087;28;20025;-37
2021/05/10 08:15:46;;;;;;;3.40;1.60;;;21.90;48.40;;;;;;5031735;28;20034;-36
2021/05/10 08:18:12;;;;;;;4.32;2.05;;;21.90;48.40;;;;;;5035844;28;20025;-50
2021/05/10 08:20:43;;;;;;;2.78;1.40;;;22.00;48.70;;;;;;5051637;28;20032;-36
2021/05/10 08:23:10;;;;;;;3.28;1.70;;;21.90;48.40;;;;;;5050438;28;20363;-36
2021/05/10 08:25:37;;;;;;;4.95;1.77;;;21.90;48.40;;;;;;5051079;28;20036;-36
2021/05/10 08:28:03;;;;;;;2.92;1.60;;;22.00;48.40;;;;;;5051716;28;20033;-37
2021/05/10 08:30:29;;;;;;;5.15;1.70;;;22.00;48.40;;;;;;5049247;28;20061;-39
2021/05/10 08:32:57;;;;;;;4.45;1.90;;;22.00;48.40;;;;;;5033684;28;20095;-36
2021/05/10 08:35:23;;;;;;;5.72;1.98;;;22.00;48.60;;;;;;5028084;28;20482;-37
2021/05/10 08:37:49;;;;;;;2.58;1.70;;;22.00;48.70;;;;;;5031043;28;20105;-37
2021/05/10 08:40:16;;;;;;;3.63;1.75;;;22.00;48.60;;;;;;5030437;28;20109;-46
2021/05/10 08:42:45;;;;;;;3.33;1.65;;;22.00;48.60;;;;;;5031315;28;20116;-35
2021/05/10 08:45:18;;;;;;;2.92;1.40;;;22.00;48.50;;;;;;5029685;28;20033;-46
2021/05/10 08:47:44;;;;;;;7.32;1.90;;;22.00;48.60;;;;;;5033759;28;20033;-36
2021/05/10 08:50:11;;;;;;;2.25;1.65;;;22.00;48.60;;;;;;5049674;28;20131;-35
2021/05/10 08:52:37;;;;;;;2.95;1.83;;;22.00;48.70;;;;;;5050917;28;20474;-35
2021/05/10 08:55:05;;;;;;;3.65;1.60;;;22.00;48.70;;;;;;5038212;28;20032;-36
2021/05/10 08:57:31;;;;;;;3.30;1.50;;;22.00;48.60;;;;;;5031212;28;20025;-35
2021/05/10 08:59:57;;;;;;;2.63;1.50;;;22.00;48.70;;;;;;5032391;28;20080;-36
2021/05/10 09:02:33;;;;;;;6.43;1.70;;;22.00;48.70;;;;;;5030426;28;20429;-35
2021/05/10 09:05:14;;;;;;;5.07;2.30;;;22.00;48.60;;;;;;5031483;28;20033;-35
2021/05/10 09:07:40;;;;;;;3.03;1.52;;;22.00;48.70;;;;;;5030968;28;20030;-36
2021/05/10 09:10:11;;;;;;;3.30;1.75;;;22.00;48.70;;;;;;5031292;28;20470;-35
2021/05/10 09:12:46;;;;;;;2.63;1.40;;;22.00;48.70;;;;;;5030657;28;20026;-35
2021/05/10 09:15:19;;;;;;;4.72;1.40;;;22.00;48.80;;;;;;5034728;28;20025;-49
2021/05/10 09:17:50;;;;;;;3.30;1.52;;;22.00;48.80;;;;;;5036941;28;20030;-35
2021/05/10 09:20:19;;;;;;;4.50;1.75;;;22.00;48.80;;;;;;5053947;28;20382;-50
2021/05/10 09:22:54;;;;;;;2.97;1.48;;;22.00;48.80;;;;;;5054450;28;20120;-35
2021/05/10 09:25:31;;;;;;;3.90;1.67;;;22.00;48.90;;;;;;5053707;28;20033;-35
2021/05/10 09:28:25;;;;;;;1.88;1.58;;;22.00;48.90;;;;;;5054716;28;20115;-35
2021/05/10 09:30:53;;;;;;;3.35;1.60;;;22.00;48.90;;;;;;5030253;28;20116;-35
2021/05/10 09:33:27;;;;;;;3.60;1.67;;;22.00;48.90;;;;;;5032363;28;20022;-36
2021/05/10 09:35:58;;;;;;;3.35;1.33;;;22.00;48.90;;;;;;5034467;28;20032;-35
2021/05/10 09:38:29;;;;;;;2.00;1.50;;;22.00;48.90;;;;;;5065704;28;20443;-35
2021/05/10 09:40:56;;;;;;;3.00;1.30;;;22.00;48.90;;;;;;5034400;28;20034;-35
2021/05/10 09:43:26;;;;;;;2.90;1.15;;;22.00;48.90;;;;;;5033270;28;20029;-35
2021/05/10 09:45:53;;;;;;;2.53;1.52;;;22.00;49.00;;;;;;5066187;28;20025;-35
2021/05/10 09:48:26;;;;;;;2.88;1.30;;;22.00;49.00;;;;;;5065314;28;20031;-45
2021/05/10 09:51:00;;;;;;;2.13;1.40;;;22.10;49.00;;;;;;5032911;28;20029;-35
2021/05/10 09:53:55;;;;;;;3.42;1.60;;;22.10;49.00;;;;;;5033244;28;20437;-35
2021/05/10 09:56:28;;;;;;;2.83;1.52;;;22.00;48.90;;;;;;5033301;28;20030;-35
2021/05/10 09:59:02;;;;;;;2.30;1.30;;;22.10;49.00;;;;;;5034143;28;20133;-35
2021/05/10 10:01:45;;;;;;;1.90;1.20;;;22.00;49.00;;;;;;5033077;28;20116;-35
2021/05/10 10:04:17;;;;;;;2.58;1.25;;;22.10;49.70;;;;;;5034065;28;20160;-35
2021/05/10 10:06:44;;;;;;;2.35;1.10;;;22.10;49.10;;;;;;5015983;28;20536;-35
2021/05/10 10:09:10;;;;;;;1.80;1.40;;;22.10;49.10;;;;;;5033724;28;20032;-35
2021/05/10 10:11:36;;;;;;;2.70;1.50;;;22.10;49.10;;;;;;5031617;28;20087;-35
2021/05/10 10:14:03;;;;;;;2.55;1.30;;;22.10;49.10;;;;;;5033576;28;20283;-36
2021/05/10 10:16:31;;;;;;;1.35;1.00;;;22.00;49.00;;;;;;5031517;28;20378;-38
2021/05/10 10:19:05;;;;;;;2.13;1.20;;;22.10;49.10;;;;;;5044664;28;20025;-35
2021/05/10 10:21:32;;;;;;;1.73;1.10;;;22.10;49.10;;;;;;5052658;28;20025;-35
2021/05/10 10:24:01;;;;;;;2.13;1.42;;;22.10;49.10;;;;;;5040695;28;20091;-38
2021/05/10 10:26:28;;;;;;;1.73;1.25;;;22.10;49.10;;;;;;5032648;28;20116;-35
2021/05/10 10:28:54;;;;;;;2.42;1.30;;;22.10;49.10;;;;;;5065195;28;20079;-35
2021/05/10 10:31:31;;;;;;;1.95;1.10;;;22.10;49.10;;;;;;5032844;28;20033;-50
2021/05/10 10:34:10;;;;;;;2.95;1.02;;;22.10;49.10;;;;;;5065409;28;20025;-35
2021/05/10 10:36:49;;;;;;;2.67;1.23;;;22.10;49.10;;;;;;5030883;28;20083;-36
2021/05/10 10:39:20;;;;;;;2.35;0.90;;;22.10;49.00;;;;;;5033446;28;20033;-37
2021/05/10 10:42:12;;;;;;;3.08;1.15;;;22.10;49.00;;;;;;5033332;28;20026;-35
2021/05/10 10:44:42;;;;;;;2.47;1.13;;;22.10;49.10;;;;;;5062834;28;20546;-35
2021/05/10 10:47:43;;;;;;;2.25;1.10;;;22.10;49.00;;;;;;5033299;28;20478;-39
2021/05/10 10:50:19;;;;;;;2.45;1.50;;;22.10;49.00;;;;;;5012906;28;20128;-35
2021/05/10 10:52:59;;;;;;;1.63;1.00;;;22.10;49.10;;;;;;5013112;28;20030;-35
2021/05/10 10:55:27;;;;;;;7.28;2.40;;;22.10;49.00;;;;;;5012627;28;20030;-36
2021/05/10 10:57:54;;;;;;;125.75;34.97;;;22.10;49.10;;;;;;5012794;28;20100;-35
2021/05/10 11:00:21;;;;;;;89.68;23.98;;;22.10;49.40;;;;;;5012732;28;20088;-49
2021/05/10 11:02:52;;;;;;;111.53;33.58;;;22.10;49.50;;;;;;5011692;28;20113;-35
2021/05/10 11:05:19;;;;;;;;;;;22.10;49.50;;;;;;5013095;28;20040;-50
2021/05/10 11:07:52;;;;;;;103.72;30.58;;;22.10;49.40;;;;;;5030365;28;19909;-35
2021/05/10 11:10:58;;;;;;;84.82;24.98;;;22.20;49.50;;;;;;5032684;28;20425;-49
2021/05/10 11:13:29;;;;;;;92.30;24.90;;;22.10;49.30;;;;;;5030532;28;20470;-36
2021/05/10 11:15:56;;;;;;;58.67;20.05;;;22.20;49.40;;;;;;5032740;28;20025;-35
2021/05/10 11:18:47;;;;;;;74.97;21.88;;;22.20;49.40;;;;;;5028782;28;20037;-42
2021/05/10 11:21:22;;;;;;;65.45;20.60;;;22.10;49.30;;;;;;5032050;28;20025;-35
2021/05/10 11:23:57;;;;;;;64.43;18.67;;;22.10;49.30;;;;;;5032192;28;20108;-35
2021/05/10 11:26:55;;;;;;;56.08;18.33;;;22.10;49.30;;;;;;5031374;28;20029;-42
2021/05/10 11:29:26;;;;;;;53.33;17.13;;;22.10;49.30;;;;;;5031695;28;20372;-50
2021/05/10 11:31:53;;;;;;;;;;;22.10;49.30;;;;;;5032437;28;20021;-47
2021/05/10 11:34:35;;;;;;;57.88;16.33;;;22.10;49.30;;;;;;5030487;28;19909;-50
2021/05/10 11:37:01;;;;;;;;;;;22.10;49.30;;;;;;5030742;28;20463;-35
2021/05/10 11:39:29;;;;;;;52.92;16.63;;;22.20;49.30;;;;;;5030530;28;20007;-35
2021/05/10 11:42:03;;;;;;;51.03;16.88;;;22.10;49.30;;;;;;5031874;28;20045;-35
2021/05/10 11:44:40;;;;;;;53.85;15.68;;;22.10;49.30;;;;;;5031204;28;20084;-35
2021/05/10 11:47:10;;;;;;;37.75;12.77;;;22.10;49.30;;;;;;5032141;28;20117;-35
2021/05/10 11:49:37;;;;;;;42.97;13.75;;;22.10;49.20;;;;;;5048614;28;20028;-36
2021/05/10 11:52:23;;;;;;;43.08;12.75;;;22.10;49.30;;;;;;5050819;28;20025;-35
2021/05/10 11:54:54;;;;;;;45.65;13.77;;;22.10;49.30;;;;;;5051735;28;20105;-35
2021/05/10 11:57:22;;;;;;;40.57;12.73;;;22.10;49.30;;;;;;5051416;28;20025;-48
2021/05/10 11:59:51;;;;;;;33.90;12.00;;;22.10;49.30;;;;;;5051509;28;20053;-35
2021/05/10 12:02:21;;;;;;;31.33;9.80;;;22.10;49.30;;;;;;5049487;28;20037;-35
2021/05/10 12:04:50;;;;;;;31.67;11.57;;;22.10;49.30;;;;;;5050177;28;20040;-35
2021/05/10 12:07:18;;;;;;;31.42;10.25;;;22.10;49.30;;;;;;5037353;28;20029;-35
2021/05/10 12:10:05;;;;;;;33.75;10.32;;;22.10;49.30;;;;;;5031312;28;20022;-35
2021/05/10 12:12:35;;;;;;;26.38;9.82;;;22.10;49.30;;;;;;5028551;28;20036;-36
2021/05/10 12:15:11;;;;;;;34.85;11.50;;;22.10;49.20;;;;;;5030415;28;20044;-38
2021/05/10 12:17:39;;;;;;;31.67;10.85;;;22.10;49.20;;;;;;5030979;28;20030;-35
2021/05/10 12:20:07;;;;;;;24.42;9.52;;;22.10;49.20;;;;;;5050292;28;20025;-35
2021/05/10 12:22:38;;;;;;;33.00;9.63;;;22.10;49.20;;;;;;5049344;28;20082;-36
2021/05/10 12:25:07;;;;;;;31.58;8.77;;;22.10;49.20;;;;;;5051599;28;20470;-35
2021/05/10 12:27:57;;;;;;;24.02;8.10;;;22.10;49.20;;;;;;5050640;28;20174;-35
2021/05/10 12:30:47;;;;;;;24.83;8.52;;;22.10;49.20;;;;;;5049809;28;20040;-43
2021/05/10 12:33:17;;;;;;;22.88;8.20;;;22.10;49.20;;;;;;5050980;28;20064;-36
2021/05/10 12:35:46;;;;;;;22.73;8.45;;;22.10;49.10;;;;;;5031520;28;20025;-43
2021/05/10 12:38:23;;;;;;;23.75;7.30;;;22.10;49.10;;;;;;5031450;28;20017;-35
2021/05/10 12:40:49;;;;;;;22.05;7.57;;;22.10;49.20;;;;;;5031159;28;20492;-35
2021/05/10 12:43:19;;;;;;;21.70;7.60;;;22.10;49.50;;;;;;5031017;28;20032;-36
2021/05/10 12:45:48;;;;;;;22.55;8.20;;;22.10;49.70;;;;;;5030951;28;20134;-36
2021/05/10 12:48:22;;;;;;;26.77;8.55;;;22.10;49.80;;;;;;5038645;28;20024;-36
2021/05/10 12:50:52;;;;;;;24.85;8.00;;;22.10;50.00;;;;;;5053645;28;20052;-38
2021/05/10 12:53:53;;;;;;;25.80;7.25;;;22.10;50.30;;;;;;5055076;28;20028;-36
2021/05/10 12:56:19;;;;;;;23.13;7.85;;;22.10;50.90;;;;;;5055390;28;20029;-35